Time;durP1;ratioP1;P1;durP2;ratioP2;P2;SDS_P1;SDS_P2;PMS_P1;PMS_P2;Temp;Humidity;BMP_temperature;BMP_pressure;BME280_temperature;BME280_humidity;BME280_pressure;Samples;Min_cycle;Max_cycle;Signal;HPM_P1;HPM_P2
2021/03/20 15:21:14;;;;;;;63.50;24.05;;;;;;;16.86;42.22;94722.69;5060867;28;20383;-65
2021/03/20 15:23:40;;;;;;;60.78;24.25;;;;;;;16.78;42.67;94734.31;5012679;28;76276;-66
2021/03/20 15:26:12;;;;;;;55.83;21.88;;;;;;;16.70;43.29;94654.03;5038754;28;20045;-66
2021/03/20 15:28:37;;;;;;;52.42;19.98;;;;;;;16.60;43.29;94654.63;5038878;28;20025;-66
2021/03/20 15:31:05;;;;;;;48.42;19.63;;;;;;;16.50;43.71;94643.88;5031377;28;20037;-65
2021/03/20 15:33:31;;;;;;;45.85;18.38;;;;;;;16.41;44.11;94653.94;5024131;28;20036;-61
2021/03/20 15:35:57;;;;;;;41.83;18.10;;;;;;;16.45;44.02;94654.28;5021607;28;20013;-63
2021/03/20 15:38:23;;;;;;;45.03;18.35;;;;;;;16.43;44.01;94658.97;5048105;28;20028;-63
2021/03/20 15:40:58;;;;;;;37.00;15.27;;;;;;;16.39;44.17;94648.13;5030606;28;20056;-63
2021/03/20 15:43:28;;;;;;;35.47;14.15;;;;;;;16.40;44.34;94652.31;5025256;28;20032;-63
2021/03/20 15:45:54;;;;;;;37.28;14.27;;;;;;;16.44;43.95;94654.50;5036881;28;20041;-63
2021/03/20 15:48:22;;;;;;;37.88;14.82;;;;;;;16.41;43.98;94648.69;5034234;28;20052;-62
2021/03/20 15:57:36;;;;;;;5.57;2.47;;;;;;;17.09;54.82;94593.13;5044626;28;20400;-62
2021/03/20 16:00:06;;;;;;;2.55;1.55;;;;;;;17.91;53.10;94598.03;4990066;28;20038;-62
2021/03/20 16:02:37;;;;;;;1.63;1.10;;;;;;;18.88;51.16;94603.16;5015734;28;20086;-63
2021/03/20 16:05:04;;;;;;;1.80;0.90;;;;;;;19.81;49.48;94599.69;4992283;28;20038;-61
2021/03/20 16:07:29;;;;;;;0.77;0.73;;;;;;;20.67;48.11;94602.19;5015939;28;20018;-60
2021/03/20 16:09:58;;;;;;;0.60;0.60;;;;;;;21.49;46.95;94609.72;5017491;28;20037;-63
2021/03/20 16:12:24;;;;;;;1.23;0.68;;;;;;;22.22;45.60;94609.53;4994012;28;20101;-61
2021/03/20 16:16:55;;;;;;;0.85;0.60;;;;;;;23.30;43.35;94614.63;5108822;27;20380;-52
2021/03/20 16:19:21;;;;;;;0.50;0.50;;;;;;;23.91;42.36;94612.75;5061786;28;20043;-54
2021/03/20 16:21:46;;;;;;;0.40;0.40;;;;;;;24.46;41.79;94620.56;5100371;28;20028;-53
2021/03/20 16:24:11;;;;;;;1.77;0.40;;;;;;;24.95;40.90;94623.03;5111932;28;20035;-53
2021/03/20 16:26:37;;;;;;;0.82;0.40;;;;;;;25.42;40.34;94618.00;5074431;28;20026;-54
2021/03/20 16:29:03;;;;;;;2.17;0.47;;;;;;;25.84;39.70;94616.38;5090662;28;20020;-51
2021/03/20 16:31:28;;;;;;;0.63;0.30;;;;;;;26.22;39.27;94620.91;5050603;28;20049;-54
2021/03/20 16:33:54;;;;;;;0.38;0.38;;;;;;;26.63;38.39;94622.91;5049522;28;20036;-54
2021/03/20 16:36:22;;;;;;;0.88;0.40;;;;;;;27.00;38.60;94618.53;5047497;28;20017;-55
2021/03/20 16:38:47;;;;;;;0.52;0.40;;;;;;;27.35;37.77;94614.38;5051224;28;20044;-54
2021/03/20 16:41:24;;;;;;;0.60;0.57;;;;;;;27.73;38.10;94614.13;5034440;28;20111;-54
2021/03/20 16:43:51;;;;;;;1.95;0.40;;;;;;;28.03;36.97;94615.34;5026916;28;20072;-55
2021/03/20 16:46:19;;;;;;;0.50;0.40;;;;;;;28.31;36.49;94622.44;5050416;28;20024;-54
2021/03/20 16:48:45;;;;;;;1.02;0.50;;;;;;;28.58;35.96;94616.22;5062692;28;20029;-53
2021/03/20 16:53:34;;;;;;;1.05;1.00;;;;;;;27.76;28.70;94645.59;5126213;27;20410;-82
2021/03/20 16:56:02;;;;;;;1.05;1.00;;;;;;;26.86;27.69;94642.50;5120107;28;20028;-83
2021/03/20 16:58:32;;;;;;;1.58;1.48;;;;;;;25.70;28.29;94640.28;5065565;28;20043;-85
2021/03/20 17:00:57;;;;;;;1.67;1.40;;;;;;;24.39;27.29;94642.94;5073505;28;20059;-84
2021/03/20 17:03:26;;;;;;;1.83;1.63;;;;;;;22.98;28.68;94636.22;5071203;28;20104;-86
2021/03/20 17:05:58;;;;;;;1.67;1.23;;;;;;;21.70;28.39;94639.66;5066784;28;20024;-86
2021/03/20 17:08:28;;;;;;;2.13;1.63;;;;;;;20.38;29.81;94643.19;5086689;28;20096;-86
2021/03/20 17:10:54;;;;;;;1.95;1.42;;;;;;;19.21;29.13;94643.59;5085288;28;20027;-85
2021/03/20 17:13:19;;;;;;;1.70;1.48;;;;;;;18.12;29.68;94643.91;5085757;28;20058;-84
2021/03/20 17:15:50;;;;;;;1.77;1.15;;;;;;;17.03;31.24;94621.13;5062593;28;20028;-85
2021/03/20 17:18:25;;;;;;;1.45;1.35;;;;;;;16.18;31.65;94638.16;5116768;28;20032;-85
2021/03/20 17:20:54;;;;;;;1.17;1.08;;;;;;;15.24;32.14;94621.09;5075980;28;20036;-84
2021/03/20 17:23:27;;;;;;;2.35;1.80;;;;;;;14.50;32.73;94632.56;5067416;28;20028;-84
2021/03/20 17:25:55;;;;;;;1.95;1.40;;;;;;;13.86;33.09;94651.00;5087073;28;20049;-85
2021/03/20 17:28:28;;;;;;;1.80;1.08;;;;;;;13.20;33.36;94646.91;5089774;28;20035;-86
2021/03/20 17:30:59;;;;;;;1.40;1.15;;;;;;;12.51;33.92;94630.88;5077858;28;20016;-86
2021/03/20 17:33:32;;;;;;;1.63;1.50;;;;;;;12.09;33.81;94653.78;5071640;28;20024;-86
2021/03/20 17:36:02;;;;;;;1.83;1.38;;;;;;;11.68;34.42;94665.91;5096608;28;20025;-86
2021/03/20 17:38:38;;;;;;;2.38;1.65;;;;;;;11.30;34.51;94668.22;5087073;28;20060;-87
2021/03/20 17:41:08;;;;;;;1.88;1.60;;;;;;;10.82;34.73;94650.81;5089403;28;20031;-86
2021/03/20 17:43:36;;;;;;;1.95;1.60;;;;;;;10.51;34.85;94665.03;5092852;28;20049;-85
2021/03/20 17:46:10;;;;;;;2.35;1.90;;;;;;;10.12;35.27;94644.72;5103838;28;20028;-86
2021/03/20 17:48:39;;;;;;;2.55;1.83;;;;;;;9.82;35.51;94646.69;5113210;28;20016;-85
2021/03/20 17:51:13;;;;;;;2.35;1.88;;;;;;;9.71;35.33;94663.56;5084986;28;20028;-86
2021/03/20 17:53:48;;;;;;;1.73;1.35;;;;;;;9.36;35.74;94650.44;5106701;28;20039;-85
2021/03/20 17:56:16;;;;;;;2.10;1.50;;;;;;;9.27;36.08;94664.50;5103398;28;20031;-86
2021/03/20 17:58:49;;;;;;;2.10;1.35;;;;;;;8.96;35.73;94642.22;5105672;28;20024;-86
2021/03/20 18:01:24;;;;;;;1.88;1.35;;;;;;;8.76;35.94;94642.78;5085480;28;20024;-85
2021/03/20 18:03:51;;;;;;;1.75;1.02;;;;;;;8.66;36.22;94660.38;5095411;28;20031;-85
2021/03/20 18:06:27;;;;;;;1.40;1.30;;;;;;;8.51;36.30;94664.75;5092351;28;20107;-85
2021/03/20 18:08:52;;;;;;;1.38;0.95;;;;;;;8.32;36.53;94664.28;5074261;28;20020;-85
2021/03/20 18:11:27;;;;;;;1.60;1.23;;;;;;;8.18;36.32;94668.44;5064966;28;20032;-85
2021/03/20 18:13:55;;;;;;;1.60;1.20;;;;;;;8.15;36.42;94689.53;5046381;28;20092;-85
2021/03/20 18:16:22;;;;;;;1.10;1.00;;;;;;;8.03;36.46;94683.16;5035226;28;20052;-87
2021/03/20 18:18:53;;;;;;;2.65;1.10;;;;;;;7.90;36.61;94677.75;5021052;28;20115;-87
2021/03/20 18:21:19;;;;;;;1.48;1.08;;;;;;;7.76;36.73;94668.97;5034530;28;20117;-86
2021/03/20 18:23:48;;;;;;;1.20;1.00;;;;;;;7.66;36.97;94666.63;5070332;28;20073;-87
2021/03/20 18:26:20;;;;;;;1.58;1.02;;;;;;;7.52;37.19;94669.94;5050497;28;20029;-87
2021/03/20 18:28:51;;;;;;;1.60;1.17;;;;;;;7.47;37.17;94664.50;5048736;28;20044;-86
2021/03/20 18:31:26;;;;;;;1.13;1.00;;;;;;;7.48;37.37;94681.63;5039185;28;20024;-86
2021/03/20 18:33:53;;;;;;;0.98;0.85;;;;;;;7.41;37.06;94682.31;5035343;28;20068;-86
2021/03/20 18:36:28;;;;;;;1.73;1.50;;;;;;;7.38;37.27;94684.41;5021807;28;20020;-86
2021/03/20 18:39:19;;;;;;;2.63;1.42;;;;;;;7.35;37.10;94677.81;5036675;28;20029;-86
2021/03/20 18:41:44;;;;;;;1.52;1.40;;;;;;;7.23;37.18;94674.00;5052157;28;20017;-87
2021/03/20 18:44:15;;;;;;;2.03;1.35;;;;;;;7.18;37.05;94677.09;5024940;28;20040;-85
2021/03/20 18:46:52;;;;;;;1.63;1.33;;;;;;;7.19;37.40;94688.25;5072785;28;20040;-87
2021/03/20 18:49:21;;;;;;;1.95;1.58;;;;;;;7.16;37.53;94683.41;5064772;28;20044;-86
2021/03/20 18:51:49;;;;;;;1.73;1.60;;;;;;;6.97;37.52;94669.94;5083500;28;20020;-90
2021/03/20 18:54:15;;;;;;;3.08;2.38;;;;;;;6.93;37.30;94673.84;5040395;28;20039;-89
2021/03/20 18:56:40;;;;;;;2.08;1.85;;;;;;;6.84;37.14;94664.50;5057067;28;20024;-92
2021/03/20 18:59:13;;;;;;;2.17;1.73;;;;;;;6.89;37.19;94677.69;5073246;28;20035;-87
2021/03/20 19:01:41;;;;;;;2.20;1.70;;;;;;;6.86;37.15;94683.22;5088719;28;20036;-86
2021/03/20 19:04:14;;;;;;;3.60;2.25;;;;;;;6.80;37.78;94683.91;5089912;28;20062;-86
2021/03/20 19:06:45;;;;;;;2.72;1.88;;;;;;;6.60;37.51;94658.41;5063351;28;20093;-87
2021/03/20 19:09:20;;;;;;;3.03;1.95;;;;;;;6.58;37.52;94664.75;5101857;28;20066;-86
2021/03/20 19:11:48;;;;;;;1.83;1.55;;;;;;;6.63;37.31;94683.16;5082629;28;20077;-84
2021/03/20 19:14:16;;;;;;;1.95;1.55;;;;;;;6.61;37.48;94690.25;5083359;28;20074;-84
2021/03/20 19:16:47;;;;;;;1.85;1.55;;;;;;;6.56;37.30;94695.91;5069012;28;20058;-86
2021/03/20 19:19:15;;;;;;;3.03;1.60;;;;;;;6.53;37.70;94698.00;5072533;28;20059;-85
2021/03/20 19:21:44;;;;;;;1.92;1.52;;;;;;;6.46;37.70;94696.09;5068606;28;20059;-87
2021/03/20 19:24:10;;;;;;;2.10;1.80;;;;;;;6.42;37.14;94696.59;5036735;28;20042;-86
2021/03/20 19:26:36;;;;;;;2.03;1.63;;;;;;;6.35;37.39;94699.00;5037720;28;20344;-86
2021/03/20 19:29:08;;;;;;;1.83;1.63;;;;;;;6.27;37.51;94699.03;5033876;28;20021;-86
2021/03/20 19:31:44;;;;;;;1.58;1.27;;;;;;;6.14;37.77;94683.25;5047197;28;20017;-86
2021/03/20 19:34:11;;;;;;;1.45;1.10;;;;;;;6.21;37.60;94703.09;5052581;28;20059;-86
2021/03/20 19:36:44;;;;;;;1.48;1.23;;;;;;;6.11;37.78;94694.72;5039606;28;20044;-85
2021/03/20 19:39:17;;;;;;;1.60;1.13;;;;;;;6.05;38.31;94693.59;5071531;28;20025;-85
2021/03/20 19:41:49;;;;;;;1.45;1.15;;;;;;;6.03;38.03;94697.28;5052385;28;20063;-85
2021/03/20 19:44:19;;;;;;;2.00;1.00;;;;;;;5.91;37.59;94683.88;5054492;28;20029;-85
2021/03/20 19:46:57;;;;;;;1.38;1.15;;;;;;;5.86;37.34;94692.09;5037072;28;20039;-85
2021/03/20 19:49:23;;;;;;;1.63;1.20;;;;;;;5.85;37.87;94698.22;5038731;28;20049;-85
2021/03/20 19:51:58;;;;;;;1.60;1.20;;;;;;;5.79;38.12;94695.50;5011575;28;20041;-88
2021/03/20 19:54:24;;;;;;;1.55;1.25;;;;;;;5.67;37.89;94687.22;5027094;28;20037;-86
2021/03/20 19:56:50;;;;;;;1.70;1.20;;;;;;;5.76;38.08;94706.91;5006573;28;20016;-86
2021/03/20 19:59:17;;;;;;;2.15;1.10;;;;;;;5.69;38.09;94700.78;5005789;28;20036;-87
2021/03/20 20:01:51;;;;;;;1.48;1.20;;;;;;;5.67;38.25;94707.88;5010826;28;20036;-87
2021/03/20 20:04:17;;;;;;;5.60;1.17;;;;;;;5.55;38.29;94696.25;5008763;28;20033;-87
2021/03/20 20:06:52;;;;;;;1.75;1.10;;;;;;;5.51;38.10;94697.56;5028736;28;20033;-87
2021/03/20 20:09:20;;;;;;;1.83;1.10;;;;;;;5.45;38.23;94699.78;5003981;28;20106;-86
2021/03/20 20:11:55;;;;;;;0.85;0.85;;;;;;;5.38;38.18;94688.47;5013608;28;20081;-87
2021/03/20 20:14:22;;;;;;;1.65;1.10;;;;;;;5.39;38.01;94697.84;5008035;28;20040;-87
2021/03/20 20:16:54;;;;;;;1.98;1.20;;;;;;;5.39;38.39;94699.63;5040851;28;20027;-87
2021/03/20 20:19:37;;;;;;;;;;;;;;;;;;;;;
2021/03/20 20:22:08;;;;;;;1.52;0.90;;;;;;;5.22;38.22;94696.22;5023257;28;20021;-87
2021/03/20 20:24:36;;;;;;;;;;;;;;;5.34;37.52;94715.56;5022267;28;20049;-87
2021/03/20 20:27:04;;;;;;;1.75;0.90;;;;;;;5.21;38.07;94703.09;5038162;28;19928;-88
2021/03/20 20:29:33;;;;;;;2.92;1.38;;;;;;;5.12;38.11;94695.50;5010446;28;20032;-87
2021/03/20 20:32:05;;;;;;;1.60;1.08;;;;;;;4.99;38.06;94688.22;5011567;28;20025;-87
2021/03/20 20:34:39;;;;;;;1.80;1.20;;;;;;;4.99;38.84;94690.78;5026843;28;20034;-87
2021/03/20 20:37:07;;;;;;;1.13;0.90;;;;;;;4.99;38.44;94701.94;5028301;28;20066;-87
2021/03/20 20:39:42;;;;;;;1.33;1.10;;;;;;;4.96;38.45;94704.81;5008704;28;20028;-87
2021/03/20 20:42:16;;;;;;;1.10;1.00;;;;;;;4.87;38.47;94695.44;5035230;28;20021;-87
2021/03/20 20:44:42;;;;;;;1.08;0.90;;;;;;;4.77;38.30;94685.25;5031416;28;20045;-87
2021/03/20 20:47:18;;;;;;;1.23;1.05;;;;;;;4.86;38.19;94706.72;5038333;28;20041;-87
2021/03/20 20:49:57;;;;;;;;;;;;;;;;;;;;;
2021/03/20 20:52:25;;;;;;;1.63;1.00;;;;;;;4.60;38.67;94689.50;5032696;28;20037;-87
2021/03/20 20:54:51;;;;;;;1.48;0.90;;;;;;;4.72;38.56;94702.91;5025315;28;20084;-88
2021/03/20 20:57:27;;;;;;;1.52;1.00;;;;;;;4.64;38.58;94695.97;4993215;28;20037;-87
2021/03/20 20:59:53;;;;;;;0.95;0.82;;;;;;;4.57;38.58;94689.84;5013143;28;20041;-87
2021/03/20 21:02:28;;;;;;;1.20;0.93;;;;;;;4.52;38.19;94692.06;5029391;28;20053;-88
2021/03/20 21:04:55;;;;;;;1.15;0.88;;;;;;;4.52;38.68;94696.41;5021765;28;20041;-87
2021/03/20 21:07:30;;;;;;;1.83;1.10;;;;;;;4.50;38.29;94689.63;5026463;28;20022;-87
2021/03/20 21:09:58;;;;;;;2.00;1.17;;;;;;;4.58;38.80;94713.81;5023267;28;20075;-87
2021/03/20 21:12:33;;;;;;;2.58;1.10;;;;;;;4.47;38.88;94702.81;4999208;28;20075;-87
2021/03/20 21:15:02;;;;;;;1.13;0.80;;;;;;;4.40;38.52;94691.50;5028432;28;20041;-87
2021/03/20 21:17:33;;;;;;;1.55;0.98;;;;;;;4.36;38.79;94686.81;5040516;28;20029;-87
2021/03/20 21:20:10;;;;;;;1.45;0.95;;;;;;;4.44;39.13;94702.31;5010798;28;20029;-87
2021/03/20 21:22:38;;;;;;;0.88;0.80;;;;;;;4.38;38.31;94696.00;5012965;28;20030;-88
2021/03/20 21:25:14;;;;;;;1.20;0.90;;;;;;;4.31;38.64;94693.22;5024781;28;20387;-88
2021/03/20 21:27:43;;;;;;;1.27;0.98;;;;;;;4.34;39.24;94699.03;5005491;28;20069;-88
2021/03/20 21:30:12;;;;;;;1.50;0.80;;;;;;;4.23;38.61;94682.09;5005378;28;20041;-88
2021/03/20 21:32:45;;;;;;;1.47;0.80;;;;;;;4.31;38.71;94700.94;5020841;28;20025;-88
2021/03/20 21:35:19;;;;;;;1.10;0.93;;;;;;;4.29;38.78;94702.88;4999839;28;20039;-88
2021/03/20 21:37:47;;;;;;;1.50;1.10;;;;;;;4.19;38.91;94697.03;5007039;28;20031;-88
2021/03/20 21:40:26;;;;;;;1.83;1.02;;;;;;;4.18;38.90;94700.53;5000509;28;20049;-88
2021/03/20 21:42:54;;;;;;;1.88;1.05;;;;;;;4.17;38.85;94706.66;5047067;28;20039;-88
2021/03/20 21:45:21;;;;;;;1.92;1.10;;;;;;;4.08;38.99;94698.06;5024420;28;20277;-88
2021/03/20 21:47:54;;;;;;;1.15;0.85;;;;;;;4.12;38.91;94719.16;5005330;28;20025;-88
2021/03/20 21:50:28;;;;;;;1.55;1.20;;;;;;;3.96;38.75;94686.41;5011807;28;20029;-88
2021/03/20 21:52:56;;;;;;;1.40;1.10;;;;;;;4.05;39.09;94706.06;5009897;28;20028;-88
2021/03/20 21:55:30;;;;;;;1.65;1.10;;;;;;;4.07;39.25;94711.06;5005573;28;20123;-88
2021/03/20 21:58:02;;;;;;;1.38;1.10;;;;;;;4.05;38.89;94711.22;5030548;28;20036;-88
2021/03/20 22:00:34;;;;;;;1.08;0.90;;;;;;;3.97;39.10;94700.06;5023958;28;20029;-88
2021/03/20 22:03:03;;;;;;;1.33;0.88;;;;;;;4.06;38.93;94714.63;5005332;28;20032;-88
2021/03/20 22:05:40;;;;;;;1.30;0.98;;;;;;;3.90;39.01;94687.81;5031796;28;20025;-88
2021/03/20 22:08:13;;;;;;;1.20;0.90;;;;;;;4.09;38.96;94722.03;5031162;28;20099;-88
2021/03/20 22:10:39;;;;;;;1.35;1.10;;;;;;;4.06;39.21;94715.41;5009084;28;20082;-88
2021/03/20 22:13:12;;;;;;;1.35;1.00;;;;;;;4.04;39.07;94709.63;5019249;28;20111;-88
2021/03/20 22:15:40;;;;;;;1.27;1.00;;;;;;;4.05;39.09;94713.78;5053319;28;20017;-88
2021/03/20 22:18:15;;;;;;;1.10;0.90;;;;;;;3.93;39.51;94689.28;5023361;28;20032;-88
2021/03/20 22:20:44;;;;;;;1.05;0.80;;;;;;;4.13;39.38;94718.19;5025356;28;20108;-90
2021/03/20 22:23:18;;;;;;;1.50;0.90;;;;;;;4.07;38.71;94706.75;5052507;28;20091;-88
2021/03/20 22:25:48;;;;;;;1.10;0.90;;;;;;;4.04;39.20;94703.66;5023687;28;20029;-88
2021/03/20 22:28:21;;;;;;;1.15;0.75;;;;;;;4.12;39.24;94696.00;5016210;28;20029;-88
2021/03/20 22:30:49;;;;;;;1.00;0.80;;;;;;;4.09;39.29;94691.97;5005805;28;20021;-89
2021/03/20 22:33:21;;;;;;;0.60;0.52;;;;;;;4.17;39.15;94698.94;5011325;28;20103;-88
2021/03/20 22:35:56;;;;;;;0.57;0.57;;;;;;;4.14;38.86;94694.09;5010762;28;20056;-89
2021/03/20 22:38:29;;;;;;;0.90;0.73;;;;;;;4.10;39.11;94672.19;5066349;28;20167;-88
2021/03/20 22:40:58;;;;;;;0.77;0.65;;;;;;;4.19;39.24;94676.44;5010934;28;20071;-90
2021/03/20 22:43:32;;;;;;;0.88;0.77;;;;;;;4.16;39.17;94666.44;5016500;28;20033;-90
2021/03/20 22:46:00;;;;;;;0.90;0.70;;;;;;;4.28;38.86;94682.41;5001954;28;20025;-90
2021/03/20 22:48:33;;;;;;;1.25;0.68;;;;;;;4.28;38.67;94674.69;5019876;28;20025;-88
2021/03/20 22:51:01;;;;;;;0.90;0.70;;;;;;;4.33;39.00;94676.84;5034928;28;20058;-88
2021/03/20 22:53:27;;;;;;;0.85;0.70;;;;;;;4.30;38.96;94668.44;5032615;28;20174;-89
2021/03/20 22:55:55;;;;;;;0.85;0.73;;;;;;;4.32;38.53;94673.44;5040735;28;20029;-89
2021/03/20 22:58:23;;;;;;;0.77;0.70;;;;;;;4.39;38.46;94673.63;5016423;28;20025;-89
2021/03/20 23:01:11;;;;;;;0.85;0.68;;;;;;;4.31;38.77;94659.75;5006521;28;20029;-88
2021/03/20 23:03:45;;;;;;;0.85;0.57;;;;;;;4.41;38.58;94667.38;5022563;28;20036;-88
2021/03/20 23:06:13;;;;;;;0.73;0.70;;;;;;;4.41;38.68;94667.38;5011768;28;20022;-88
2021/03/20 23:08:43;;;;;;;0.63;0.63;;;;;;;4.46;38.79;94683.16;4999702;28;20036;-89
2021/03/20 23:11:19;;;;;;;0.98;0.70;;;;;;;4.47;38.99;94676.25;5045213;28;20039;-89
2021/03/20 23:13:54;;;;;;;1.27;0.88;;;;;;;4.46;38.49;94677.22;5036255;28;20033;-88
2021/03/20 23:16:34;;;;;;;1.00;0.70;;;;;;;4.46;38.75;94680.59;5037757;28;20040;-88
2021/03/20 23:19:01;;;;;;;1.38;0.82;;;;;;;4.49;38.94;94670.00;5049317;28;20050;-88
2021/03/20 23:21:27;;;;;;;0.95;0.77;;;;;;;4.49;38.84;94671.75;5018931;28;20258;-90
2021/03/20 23:23:55;;;;;;;0.75;0.70;;;;;;;4.48;38.64;94665.00;5020985;28;20078;-90
2021/03/20 23:26:32;;;;;;;1.27;1.00;;;;;;;4.47;38.84;94661.63;5028637;28;20064;-89
2021/03/20 23:28:59;;;;;;;0.98;0.80;;;;;;;4.42;39.13;94658.69;5030888;28;20028;-88
2021/03/20 23:31:31;;;;;;;0.93;0.80;;;;;;;4.44;38.77;94661.13;5006005;28;20046;-88
2021/03/20 23:34:00;;;;;;;1.15;0.73;;;;;;;4.37;38.64;94636.94;5037816;28;20067;-88
2021/03/20 23:36:36;;;;;;;1.52;0.80;;;;;;;4.42;38.70;94643.25;5046489;28;20081;-88
2021/03/20 23:39:06;;;;;;;1.10;0.90;;;;;;;4.38;38.93;94634.22;5036455;28;20136;-88
2021/03/20 23:41:36;;;;;;;;;;;;;;;4.55;38.41;94654.88;5051557;28;20033;-89
2021/03/20 23:44:11;;;;;;;1.17;0.80;;;;;;;4.49;38.82;94640.84;5068643;28;19912;-88
2021/03/20 23:46:39;;;;;;;0.90;0.70;;;;;;;4.45;38.53;94648.06;5017852;28;20041;-88
2021/03/20 23:49:13;;;;;;;0.82;0.75;;;;;;;4.42;39.03;94635.53;5021173;28;20024;-89
2021/03/20 23:51:41;;;;;;;0.70;0.68;;;;;;;4.43;38.81;94638.91;5071408;28;20028;-89
2021/03/20 23:54:16;;;;;;;1.02;0.63;;;;;;;4.43;38.68;94644.84;5029919;28;20029;-88
2021/03/20 23:56:50;;;;;;;1.08;0.90;;;;;;;4.44;38.82;94640.53;5052373;28;20079;-89
2021/03/20 23:59:16;;;;;;;0.70;0.60;;;;;;;4.38;38.62;94631.66;5032161;28;20032;-88
